Time;durP1;ratioP1;P1;durP2;ratioP2;P2;SDS_P1;SDS_P2;PMS_P1;PMS_P2;Temp;Humidity;BMP_temperature;BMP_pressure;BME280_temperature;BME280_humidity;BME280_pressure;Samples;Min_cycle;Max_cycle;Signal;HPM_P1;HPM_P2
2023/04/18 00:00:16;;;;;;;4.77;2.63;;;;;;;11.31;48.74;102586.16;4934492;28;97128;-51
2023/04/18 00:02:42;;;;;;;2.43;2.23;;;;;;;11.27;49.04;102585.50;4933969;28;96745;-51
2023/04/18 00:05:08;;;;;;;2.70;2.50;;;;;;;11.28;48.90;102595.31;4935856;28;97151;-50
2023/04/18 00:07:34;;;;;;;2.70;2.50;;;;;;;11.28;48.91;102593.34;4938563;28;97293;-51
2023/04/18 00:10:01;;;;;;;3.00;2.73;;;;;;;11.30;49.09;102590.13;4936610;28;97277;-51
2023/04/18 00:12:26;;;;;;;2.37;2.17;;;;;;;11.25;49.09;102585.97;4934648;28;97187;-51
2023/04/18 00:14:52;;;;;;;2.33;2.13;;;;;;;11.15;49.16;102586.34;4934571;28;96752;-51
2023/04/18 00:17:17;;;;;;;2.93;2.73;;;;;;;11.08;49.32;102584.63;4933489;28;97404;-52
2023/04/18 00:19:43;;;;;;;2.47;2.30;;;;;;;11.06;49.26;102580.78;4938144;28;97121;-51
2023/04/18 00:22:10;;;;;;;2.93;2.60;;;;;;;10.94;49.89;102576.13;4935736;28;96961;-52
2023/04/18 00:24:35;;;;;;;3.20;2.90;;;;;;;10.92;49.86;102584.06;4935421;28;97372;-51
2023/04/18 00:27:00;;;;;;;3.00;2.80;;;;;;;10.89;49.96;102580.22;4933887;28;97458;-52
2023/04/18 00:29:26;;;;;;;2.83;2.63;;;;;;;10.84;50.45;102574.50;4935029;28;99777;-52
2023/04/18 00:31:52;;;;;;;3.20;2.90;;;;;;;10.75;50.31;102585.44;4937421;28;96888;-52
2023/04/18 00:34:17;;;;;;;2.67;2.47;;;;;;;10.75;50.47;102586.19;4935804;28;97344;-51
2023/04/18 00:36:42;;;;;;;3.53;3.20;;;;;;;10.76;50.37;102587.75;4932981;28;97327;-51
2023/04/18 00:39:07;;;;;;;2.83;2.60;;;;;;;10.75;50.43;102586.19;4934229;28;97039;-51
2023/04/18 00:41:33;;;;;;;3.03;2.70;;;;;;;10.77;50.53;102585.78;4934524;28;96895;-51
2023/04/18 00:43:58;;;;;;;3.00;2.77;;;;;;;10.76;50.52;102590.50;4934944;28;97104;-52
2023/04/18 00:46:24;;;;;;;3.47;3.20;;;;;;;10.74;51.30;102587.44;4936270;28;96682;-51
2023/04/18 00:48:49;;;;;;;2.77;2.57;;;;;;;10.74;50.68;102587.44;4934286;28;97182;-52
2023/04/18 00:51:15;;;;;;;3.00;2.80;;;;;;;10.74;50.94;102600.41;4932881;28;97175;-52
2023/04/18 00:53:42;;;;;;;3.80;3.40;;;;;;;10.72;50.89;102589.09;4934844;28;97139;-51
2023/04/18 00:56:08;;;;;;;3.90;3.50;;;;;;;10.64;51.07;102585.78;4936948;28;97605;-51
2023/04/18 00:58:34;;;;;;;3.50;3.20;;;;;;;10.62;51.17;102587.44;4935238;28;96785;-51
2023/04/18 01:01:00;;;;;;;3.30;3.10;;;;;;;10.63;51.50;102586.25;4935315;28;97536;-51
2023/04/18 01:03:25;;;;;;;3.93;3.40;;;;;;;10.57;51.28;102590.78;4936602;28;96863;-51
2023/04/18 01:05:53;;;;;;;3.77;3.00;;;;;;;10.64;51.32;102585.06;4935880;28;96735;-51
2023/04/18 01:08:20;;;;;;;3.37;3.07;;;;;;;10.71;51.30;102580.06;4935222;28;97145;-51
2023/04/18 01:10:46;;;;;;;4.60;3.23;;;;;;;10.71;51.24;102580.06;4933242;28;97429;-51
2023/04/18 01:13:13;;;;;;;2.97;2.70;;;;;;;10.73;51.58;102593.38;4935248;28;96906;-50
2023/04/18 01:15:40;;;;;;;4.53;3.13;;;;;;;10.68;51.46;102585.69;4934782;28;98926;-51
2023/04/18 01:18:07;;;;;;;5.00;3.20;;;;;;;10.60;51.64;102585.16;4936022;28;97669;-51
2023/04/18 01:20:34;;;;;;;8.03;3.50;;;;;;;10.60;51.80;102587.13;4937148;28;97096;-51
2023/04/18 01:23:00;;;;;;;3.60;3.13;;;;;;;10.53;52.13;102599.91;4934041;28;97373;-52
2023/04/18 01:25:25;;;;;;;3.30;3.00;;;;;;;10.46;52.08;102580.88;4935581;28;97534;-51
2023/04/18 01:27:52;;;;;;;4.67;3.63;;;;;;;10.45;52.31;102584.09;4936254;28;97278;-50
2023/04/18 01:30:18;;;;;;;4.47;2.90;;;;;;;10.43;52.25;102583.78;4931416;28;97298;-51
2023/04/18 01:32:43;;;;;;;4.13;3.67;;;;;;;10.30;52.47;102581.06;4935225;28;96848;-50
2023/04/18 01:35:09;;;;;;;4.57;3.70;;;;;;;10.26;53.08;102574.13;4936257;28;97781;-52
2023/04/18 01:37:34;;;;;;;3.97;3.57;;;;;;;10.21;53.14;102582.94;4932982;28;97123;-51
2023/04/18 01:40:00;;;;;;;5.00;3.77;;;;;;;10.18;53.10;102584.56;4936264;28;97498;-51
2023/04/18 01:42:25;;;;;;;3.93;3.23;;;;;;;10.15;53.30;102582.72;4935110;28;97290;-51
2023/04/18 01:44:50;;;;;;;4.30;3.80;;;;;;;10.21;53.30;102580.19;4932695;28;99665;-52
2023/04/18 01:47:16;;;;;;;4.50;3.90;;;;;;;10.24;53.30;102577.31;4934316;28;97150;-51
2023/04/18 01:49:45;;;;;;;4.23;3.47;;;;;;;10.18;53.51;102573.56;4936266;28;97068;-51
2023/04/18 01:52:13;;;;;;;3.83;3.50;;;;;;;10.15;53.59;102571.72;4931579;28;97251;-51
2023/04/18 01:54:38;;;;;;;3.57;3.00;;;;;;;10.11;53.83;102564.81;4934043;28;97294;-51
2023/04/18 01:57:03;;;;;;;4.93;4.20;;;;;;;10.11;53.73;102568.31;4934879;28;97162;-51
2023/04/18 01:59:29;;;;;;;4.07;3.70;;;;;;;10.10;54.02;102565.97;4933271;28;97239;-51
2023/04/18 02:01:54;;;;;;;4.80;4.20;;;;;;;10.09;53.90;102561.69;4934329;28;97317;-52
2023/04/18 02:04:19;;;;;;;5.93;4.10;;;;;;;10.02;54.02;102565.44;4931627;28;96812;-52
2023/04/18 02:06:45;;;;;;;4.27;3.77;;;;;;;10.03;54.07;102557.94;4933492;28;97107;-51
2023/04/18 02:09:10;;;;;;;3.93;3.63;;;;;;;9.99;54.35;102563.56;4935010;28;97007;-52
2023/04/18 02:11:36;;;;;;;5.30;3.70;;;;;;;10.02;54.43;102561.91;4936252;28;97581;-51
2023/04/18 02:14:01;;;;;;;3.90;3.60;;;;;;;9.99;54.46;102568.28;4937247;28;97471;-50
2023/04/18 02:16:26;;;;;;;4.67;3.53;;;;;;;9.93;54.62;102559.84;4934403;28;97060;-52
2023/04/18 02:18:52;;;;;;;4.73;3.70;;;;;;;9.92;54.54;102552.00;4933332;28;97015;-51
2023/04/18 02:21:17;;;;;;;4.37;3.97;;;;;;;9.87;54.70;102555.34;4933372;28;96888;-50
2023/04/18 02:23:42;;;;;;;4.47;4.07;;;;;;;9.86;54.86;102557.31;4936100;28;97116;-51
2023/04/18 02:26:08;;;;;;;5.10;3.87;;;;;;;9.89;54.85;102559.19;4932781;28;97688;-51
2023/04/18 02:28:33;;;;;;;4.80;3.93;;;;;;;9.97;54.83;102560.50;4935264;28;98973;-51
2023/04/18 02:30:59;;;;;;;4.10;3.70;;;;;;;10.01;54.71;102563.13;4934152;28;97425;-51
2023/04/18 02:33:24;;;;;;;4.03;3.67;;;;;;;10.03;54.75;102563.44;4935273;28;97353;-51
2023/04/18 02:35:50;;;;;;;3.60;3.27;;;;;;;10.05;54.77;102569.28;4932484;28;96760;-50
2023/04/18 02:38:15;;;;;;;5.43;3.73;;;;;;;10.06;54.59;102573.56;4936997;28;97004;-51
2023/04/18 02:40:41;;;;;;;6.20;4.27;;;;;;;10.04;54.73;102559.50;4932943;28;97660;-51
2023/04/18 02:43:07;;;;;;;4.77;3.93;;;;;;;9.95;55.31;102562.13;4933202;28;96888;-51
2023/04/18 02:45:32;;;;;;;5.13;4.63;;;;;;;9.91;54.95;102559.50;4933331;28;97257;-51
2023/04/18 02:47:57;;;;;;;3.90;3.53;;;;;;;9.84;55.42;102562.47;4934292;28;97215;-52
2023/04/18 02:50:23;;;;;;;5.83;4.60;;;;;;;9.80;55.29;102559.06;4934950;28;97468;-51
2023/04/18 02:52:48;;;;;;;6.80;4.07;;;;;;;9.86;55.59;102557.31;4935566;28;97129;-51
2023/04/18 02:55:14;;;;;;;4.67;4.10;;;;;;;9.88;55.38;102568.63;4931613;28;97416;-51
2023/04/18 02:57:39;;;;;;;4.70;3.97;;;;;;;9.86;55.46;102557.31;4935251;28;97379;-52
2023/04/18 03:00:06;;;;;;;6.03;4.43;;;;;;;9.85;55.39;102569.50;4937197;28;97036;-51
2023/04/18 03:02:32;;;;;;;6.40;5.00;;;;;;;9.71;55.68;102564.47;4935568;28;96964;-51
2023/04/18 03:04:57;;;;;;;5.43;4.10;;;;;;;9.70;56.17;102569.19;4936533;28;97147;-52
2023/04/18 03:07:31;;;;;;;5.83;5.10;;;;;;;9.68;56.77;102557.84;4937153;28;97078;-51
2023/04/18 03:09:57;;;;;;;5.27;4.77;;;;;;;9.67;55.88;102559.09;4934870;28;97459;-51
2023/04/18 03:12:22;;;;;;;4.83;4.40;;;;;;;9.73;55.84;102573.03;4934181;28;97240;-51
2023/04/18 03:14:48;;;;;;;5.03;4.53;;;;;;;9.75;55.69;102565.88;4935366;28;97420;-51
2023/04/18 03:17:13;;;;;;;4.70;4.30;;;;;;;9.78;55.98;102567.00;4935065;28;97118;-51
2023/04/18 03:19:38;;;;;;;5.27;4.03;;;;;;;9.76;55.90;102558.41;4936311;28;96951;-51
2023/04/18 03:22:04;;;;;;;5.40;4.60;;;;;;;9.79;55.90;102566.53;4936755;28;97277;-50
2023/04/18 03:24:30;;;;;;;5.47;4.73;;;;;;;9.73;56.19;102568.31;4937085;28;97154;-51
2023/04/18 03:26:55;;;;;;;4.30;3.90;;;;;;;9.76;55.86;102569.41;4937010;28;97445;-52
2023/04/18 03:29:20;;;;;;;5.57;4.30;;;;;;;9.77;55.96;102568.19;4934348;28;97010;-51
2023/04/18 03:31:46;;;;;;;5.80;4.77;;;;;;;9.75;56.02;102565.88;4936348;28;97785;-51
2023/04/18 03:34:11;;;;;;;4.77;4.00;;;;;;;9.74;56.03;102563.59;4935664;28;97574;-52
2023/04/18 03:36:37;;;;;;;5.50;4.47;;;;;;;9.73;55.98;102568.31;4936229;28;96770;-50
2023/04/18 03:39:02;;;;;;;4.43;4.03;;;;;;;9.72;56.22;102568.72;4935927;28;97222;-51
2023/04/18 03:41:27;;;;;;;6.90;5.00;;;;;;;9.67;56.17;102561.84;4934259;28;97753;-52
2023/04/18 03:43:53;;;;;;;6.13;4.40;;;;;;;9.63;56.24;102571.38;4937364;28;98885;-52
2023/04/18 03:46:20;;;;;;;4.90;4.17;;;;;;;9.66;56.29;102560.28;4934380;28;97039;-52
2023/04/18 03:48:46;;;;;;;6.67;4.60;;;;;;;9.66;56.19;102571.28;4938599;28;97208;-50
2023/04/18 03:51:13;;;;;;;7.03;5.27;;;;;;;9.63;56.56;102566.63;4935865;28;96894;-51
2023/04/18 03:53:38;;;;;;;8.70;5.10;;;;;;;9.62;56.29;102572.59;4935708;28;97135;-52
2023/04/18 03:56:04;;;;;;;7.70;6.10;;;;;;;9.58;56.60;102582.91;4933984;28;97002;-50
2023/04/18 03:58:29;;;;;;;6.13;5.07;;;;;;;9.56;56.64;102586.13;4934844;28;97211;-51
2023/04/18 04:00:54;;;;;;;7.73;4.97;;;;;;;9.62;56.48;102583.56;4933668;28;97810;-50
2023/04/18 04:03:20;;;;;;;8.60;5.40;;;;;;;9.60;56.56;102580.50;4932290;28;96909;-51
2023/04/18 04:05:45;;;;;;;5.13;4.60;;;;;;;9.62;56.53;102578.09;4935815;28;97736;-52
2023/04/18 04:08:10;;;;;;;6.33;5.33;;;;;;;9.58;56.50;102585.66;4933650;28;97248;-51
2023/04/18 04:10:36;;;;;;;8.80;6.30;;;;;;;9.49;56.85;102585.53;4939165;28;97563;-50
2023/04/18 04:13:01;;;;;;;6.60;5.63;;;;;;;9.51;56.81;102588.63;4934310;28;96891;-52
2023/04/18 04:15:26;;;;;;;14.73;5.63;;;;;;;9.52;56.70;102592.91;4934140;28;96743;-51
2023/04/18 04:17:52;;;;;;;8.63;6.30;;;;;;;9.48;56.88;102595.00;4935112;28;97458;-52
2023/04/18 04:20:22;;;;;;;7.17;5.63;;;;;;;9.51;56.64;102596.84;4934312;28;97823;-51
2023/04/18 04:22:48;;;;;;;6.20;5.23;;;;;;;9.51;56.75;102594.13;4934541;28;97234;-51
2023/04/18 04:25:14;;;;;;;5.57;4.93;;;;;;;9.51;56.92;102588.63;4935399;28;97025;-52
2023/04/18 04:27:41;;;;;;;8.20;6.00;;;;;;;9.54;56.68;102587.75;4937098;28;96616;-51
2023/04/18 04:30:07;;;;;;;6.23;5.40;;;;;;;9.58;56.62;102589.19;4934240;28;98202;-51
2023/04/18 04:32:33;;;;;;;6.10;5.10;;;;;;;9.60;56.64;102597.75;4934546;28;97520;-51
2023/04/18 04:34:58;;;;;;;8.83;5.73;;;;;;;9.56;56.69;102601.81;4937761;28;97288;-51
2023/04/18 04:37:26;;;;;;;9.17;6.50;;;;;;;9.52;56.79;102596.41;4936620;28;97331;-51
2023/04/18 04:39:51;;;;;;;5.63;5.10;;;;;;;9.55;57.10;102608.50;4935853;28;97218;-52
2023/04/18 04:42:18;;;;;;;6.63;5.57;;;;;;;9.58;57.02;102600.19;4932656;28;99434;-51
2023/04/18 04:44:43;;;;;;;6.40;5.27;;;;;;;9.65;56.74;102610.19;4935476;28;97038;-52
2023/04/18 04:47:09;;;;;;;6.00;5.17;;;;;;;9.68;56.73;102601.84;4936945;28;96888;-51
2023/04/18 04:49:34;;;;;;;10.27;6.40;;;;;;;9.69;56.56;102602.59;4937938;28;96847;-51
2023/04/18 04:52:02;;;;;;;8.20;6.03;;;;;;;9.75;56.56;102611.84;4934834;28;97961;-52
2023/04/18 04:54:27;;;;;;;8.10;5.70;;;;;;;9.75;56.46;102614.59;4934601;28;96932;-52
2023/04/18 04:56:52;;;;;;;6.70;5.70;;;;;;;9.74;56.45;102621.31;4938677;28;97082;-51
2023/04/18 04:59:18;;;;;;;7.30;5.67;;;;;;;9.75;56.58;102625.59;4938660;28;97757;-52
2023/04/18 05:01:43;;;;;;;7.23;5.97;;;;;;;9.73;56.83;102611.50;4933229;28;97477;-51
2023/04/18 05:04:09;;;;;;;7.97;5.70;;;;;;;9.69;56.80;102617.13;4935083;28;97110;-52
2023/04/18 05:06:34;;;;;;;7.83;6.00;;;;;;;9.63;56.98;102624.34;4937862;28;97143;-52
2023/04/18 05:08:59;;;;;;;8.90;6.73;;;;;;;9.58;57.04;102624.13;4933419;28;97323;-51
2023/04/18 05:11:25;;;;;;;7.47;6.20;;;;;;;9.63;56.83;102627.09;4933744;28;96768;-51
2023/04/18 05:13:51;;;;;;;5.43;4.93;;;;;;;9.69;56.87;102622.63;4936659;28;97094;-51
2023/04/18 05:16:16;;;;;;;7.90;6.00;;;;;;;9.75;56.89;102629.13;4931710;28;97138;-51
2023/04/18 05:18:42;;;;;;;8.53;6.27;;;;;;;9.79;56.74;102638.03;4932686;28;97230;-51
2023/04/18 05:21:07;;;;;;;5.97;5.07;;;;;;;9.85;56.70;102640.97;4939081;28;97381;-50
2023/04/18 05:23:36;;;;;;;8.03;6.00;;;;;;;9.90;56.56;102634.94;4934440;28;96706;-52
2023/04/18 05:26:03;;;;;;;7.23;6.30;;;;;;;9.89;56.69;102629.88;4935334;28;97049;-50
2023/04/18 05:28:29;;;;;;;8.60;6.23;;;;;;;9.89;56.64;102641.66;4932995;28;97923;-51
2023/04/18 05:30:59;;;;;;;8.20;6.90;;;;;;;9.83;56.86;102648.91;4932571;28;96920;-51
2023/04/18 05:33:26;;;;;;;6.40;5.63;;;;;;;9.91;56.76;102654.97;4933569;28;97592;-51
2023/04/18 05:35:52;;;;;;;7.20;6.23;;;;;;;10.01;56.67;102637.38;4937079;28;97043;-51
2023/04/18 05:38:17;;;;;;;9.77;7.00;;;;;;;9.98;56.52;102650.00;4933305;28;97542;-51
2023/04/18 05:40:43;;;;;;;9.00;6.20;;;;;;;9.97;56.61;102650.47;4932916;28;97367;-51
2023/04/18 05:43:08;;;;;;;10.30;7.27;;;;;;;9.93;56.55;102658.03;4936926;28;96976;-51
2023/04/18 05:45:33;;;;;;;8.47;6.57;;;;;;;9.98;56.58;102657.50;4931531;28;97564;-51
2023/04/18 05:47:59;;;;;;;7.97;6.07;;;;;;;10.08;56.56;102659.94;4937012;28;97927;-51
2023/04/18 05:50:24;;;;;;;6.80;6.10;;;;;;;10.15;56.36;102658.97;4932821;28;97199;-51
2023/04/18 05:52:50;;;;;;;11.93;7.20;;;;;;;10.03;56.68;102662.44;4934300;28;97388;-51
2023/04/18 05:55:15;;;;;;;8.30;6.67;;;;;;;9.95;56.50;102663.88;4933082;28;97067;-51
2023/04/18 05:57:40;;;;;;;7.07;6.30;;;;;;;10.03;56.55;102674.22;4932225;28;97257;-51
2023/04/18 06:00:10;;;;;;;6.70;5.80;;;;;;;10.15;56.49;102670.75;4935919;28;97417;-50
2023/04/18 06:02:35;;;;;;;8.73;6.17;;;;;;;10.14;56.46;102673.91;4931818;28;97386;-51
2023/04/18 06:05:01;;;;;;;10.73;7.37;;;;;;;10.02;56.53;102678.19;4933417;28;97303;-51
2023/04/18 06:07:26;;;;;;;8.03;6.73;;;;;;;9.91;56.46;102680.50;4931297;28;96956;-52
2023/04/18 06:09:52;;;;;;;8.53;6.17;;;;;;;9.90;56.53;102669.91;4933809;28;96789;-50
2023/04/18 06:12:18;;;;;;;7.97;5.93;;;;;;;9.96;56.48;102679.94;4932942;28;97566;-51
2023/04/18 06:14:43;;;;;;;9.40;6.83;;;;;;;9.89;56.65;102680.16;4934306;28;97296;-50
2023/04/18 06:17:11;;;;;;;9.63;6.87;;;;;;;9.95;56.44;102675.66;4937761;28;105222;-52
2023/04/18 06:19:38;;;;;;;9.20;6.63;;;;;;;10.00;56.38;102679.84;4932443;28;97202;-52
2023/04/18 06:22:03;;;;;;;8.20;6.47;;;;;;;10.01;56.33;102671.13;4934370;28;96742;-51
2023/04/18 06:24:29;;;;;;;9.97;6.60;;;;;;;10.06;56.58;102680.81;4936252;28;97245;-51
2023/04/18 06:26:54;;;;;;;8.17;6.30;;;;;;;10.09;56.24;102680.72;4934666;28;97409;-51
2023/04/18 06:29:21;;;;;;;7.57;6.37;;;;;;;10.13;56.33;102678.66;4935514;28;97255;-52
2023/04/18 06:31:47;;;;;;;6.40;5.47;;;;;;;10.18;56.46;102678.09;4936951;28;96782;-51
2023/04/18 06:34:12;;;;;;;8.03;5.93;;;;;;;10.31;56.49;102678.88;4936887;28;97422;-50
2023/04/18 06:36:38;;;;;;;7.23;5.77;;;;;;;10.33;56.21;102692.97;4932863;28;99569;-51
2023/04/18 06:39:03;;;;;;;6.57;5.90;;;;;;;10.42;56.13;102689.53;4940173;28;97087;-50
2023/04/18 06:41:29;;;;;;;9.50;5.40;;;;;;;10.51;56.04;102687.66;4937648;28;96811;-51
2023/04/18 06:43:55;;;;;;;8.03;5.20;;;;;;;10.55;55.98;102691.06;4938723;28;97402;-51
2023/04/18 06:46:20;;;;;;;8.93;5.67;;;;;;;10.63;55.99;102688.09;4937734;28;96796;-51
2023/04/18 06:48:46;;;;;;;7.80;6.07;;;;;;;10.68;55.99;102680.03;4937981;28;97106;-50
2023/04/18 06:51:11;;;;;;;6.70;5.10;;;;;;;10.78;55.80;102689.16;4936537;28;96966;-50
2023/04/18 06:53:37;;;;;;;7.37;6.33;;;;;;;10.80;55.62;102697.75;4941509;28;97085;-51
2023/04/18 06:56:02;;;;;;;6.47;5.27;;;;;;;10.83;55.68;102689.41;4936032;28;97109;-51
2023/04/18 06:58:29;;;;;;;5.40;4.87;;;;;;;10.93;55.56;102687.47;4937248;28;97796;-51
2023/04/18 07:00:54;;;;;;;5.80;5.17;;;;;;;11.04;55.47;102685.91;4939929;28;97181;-52
2023/04/18 07:03:19;;;;;;;6.27;5.20;;;;;;;11.09;55.38;102696.38;4937874;28;97148;-50
2023/04/18 07:05:45;;;;;;;7.30;5.67;;;;;;;11.21;55.28;102694.75;4934541;28;99172;-50
2023/04/18 07:08:10;;;;;;;6.80;5.60;;;;;;;11.30;55.40;102700.34;4935331;28;97587;-51
2023/04/18 07:10:36;;;;;;;6.90;4.97;;;;;;;11.42;55.16;102694.03;4938345;28;97225;-51
2023/04/18 07:13:01;;;;;;;6.97;4.80;;;;;;;11.48;54.96;102692.22;4935040;28;97208;-51
2023/04/18 07:15:27;;;;;;;7.43;5.23;;;;;;;11.62;54.99;102693.72;4935372;28;97683;-51
2023/04/18 07:17:52;;;;;;;5.83;4.70;;;;;;;11.66;54.83;102692.38;4939548;28;97187;-51
2023/04/18 07:20:18;;;;;;;5.87;5.27;;;;;;;11.78;54.65;102696.28;4936937;28;97602;-52
2023/04/18 07:22:43;;;;;;;6.20;4.90;;;;;;;11.76;54.59;102698.72;4933992;28;96925;-51
2023/04/18 07:25:09;;;;;;;6.17;5.47;;;;;;;11.82;54.70;102699.66;4938905;28;97127;-51
2023/04/18 07:27:35;;;;;;;6.90;5.23;;;;;;;11.85;54.41;102705.06;4937101;28;97016;-51
2023/04/18 07:30:02;;;;;;;5.70;5.20;;;;;;;11.92;54.36;102695.75;4938927;28;97593;-51
2023/04/18 07:32:27;;;;;;;6.50;5.43;;;;;;;12.01;54.39;102704.09;4936178;28;97106;-51
2023/04/18 07:34:52;;;;;;;6.23;5.20;;;;;;;12.01;54.13;102707.59;4939187;28;96831;-51
2023/04/18 07:37:20;;;;;;;5.17;4.67;;;;;;;12.03;54.11;102699.63;4933070;28;96987;-51
2023/04/18 07:39:46;;;;;;;6.40;5.07;;;;;;;12.12;54.04;102706.44;4937722;28;97585;-51
2023/04/18 07:42:12;;;;;;;6.60;5.10;;;;;;;12.12;53.81;102704.44;4939654;28;96895;-51
2023/04/18 07:44:37;;;;;;;5.03;4.53;;;;;;;12.14;53.82;102699.25;4935262;28;96884;-50
2023/04/18 07:47:03;;;;;;;4.30;3.90;;;;;;;12.28;53.92;102704.19;4936904;28;96936;-52
2023/04/18 07:49:28;;;;;;;4.90;4.13;;;;;;;12.39;53.56;102699.03;4934601;28;97105;-52
2023/04/18 07:51:54;;;;;;;5.27;4.07;;;;;;;12.50;53.24;102688.31;4942576;28;97096;-51
2023/04/18 07:54:20;;;;;;;4.93;4.43;;;;;;;12.47;53.14;102711.31;4937443;28;97717;-52
2023/04/18 07:56:45;;;;;;;8.07;4.97;;;;;;;12.40;52.89;102699.81;4934102;28;97235;-50
2023/04/18 07:59:10;;;;;;;4.10;3.70;;;;;;;12.62;53.35;102706.00;4935188;28;97005;-51
2023/04/18 08:01:36;;;;;;;4.60;4.10;;;;;;;12.76;53.17;102706.19;4936995;28;97016;-51
2023/04/18 08:04:01;;;;;;;4.33;3.93;;;;;;;12.84;52.68;102694.84;4936207;28;97112;-51
2023/04/18 08:06:27;;;;;;;5.83;4.43;;;;;;;12.92;52.81;102701.59;4936228;28;97165;-51
2023/04/18 08:08:53;;;;;;;5.17;4.10;;;;;;;12.89;52.29;102697.75;4933120;28;96640;-51
2023/04/18 08:11:18;;;;;;;5.13;3.60;;;;;;;12.99;52.93;102702.09;4938777;28;100712;-51
2023/04/18 08:13:43;;;;;;;4.93;4.07;;;;;;;13.20;52.61;102698.44;4934157;28;96746;-51
2023/04/18 08:16:09;;;;;;;3.67;3.37;;;;;;;13.43;52.57;102699.81;4936373;28;97215;-51
2023/04/18 08:18:34;;;;;;;7.17;3.30;;;;;;;13.57;52.20;102690.88;4934889;28;96632;-51
2023/04/18 08:21:00;;;;;;;4.40;3.80;;;;;;;13.51;51.64;102693.50;4937496;28;98042;-52
2023/04/18 08:23:25;;;;;;;3.77;3.40;;;;;;;13.33;51.27;102692.75;4934207;28;100173;-52
2023/04/18 08:25:51;;;;;;;4.93;4.20;;;;;;;13.27;51.66;102698.13;4937639;28;96839;-51
2023/04/18 08:28:16;;;;;;;4.00;3.00;;;;;;;13.28;51.90;102696.16;4936887;28;96764;-52
2023/04/18 08:30:42;;;;;;;3.80;3.50;;;;;;;13.36;51.88;102698.13;4933519;28;97159;-51
2023/04/18 08:33:08;;;;;;;3.50;3.20;;;;;;;13.44;51.50;102693.81;4935531;28;97409;-50
2023/04/18 08:35:34;;;;;;;4.03;3.60;;;;;;;13.44;51.10;102695.81;4935078;28;96794;-51
2023/04/18 08:38:00;;;;;;;3.47;3.10;;;;;;;13.53;51.43;102690.28;4935714;28;96761;-50
2023/04/18 08:40:25;;;;;;;3.63;3.20;;;;;;;13.67;50.85;102689.66;4934330;28;97065;-51
2023/04/18 08:42:52;;;;;;;3.83;3.43;;;;;;;13.67;50.43;102694.41;4940163;28;97260;-51
2023/04/18 08:45:18;;;;;;;3.37;3.10;;;;;;;13.73;50.09;102698.06;4935002;28;97192;-50
2023/04/18 08:47:44;;;;;;;5.83;3.50;;;;;;;13.88;50.19;102698.97;4933188;28;97107;-50
2023/04/18 08:50:10;;;;;;;3.60;3.10;;;;;;;13.89;50.03;102698.47;4936203;28;97343;-52
2023/04/18 08:52:38;;;;;;;3.67;3.37;;;;;;;14.02;50.04;102693.53;4938703;28;98549;-51
2023/04/18 08:55:04;;;;;;;3.80;3.27;;;;;;;14.01;49.13;102696.75;4933441;28;97147;-52
2023/04/18 08:57:30;;;;;;;3.20;2.90;;;;;;;14.07;50.14;102692.91;4935211;28;97175;-52
2023/04/18 08:59:59;;;;;;;3.40;3.10;;;;;;;14.32;49.83;102694.53;4933843;28;97061;-52
2023/04/18 09:02:41;;;;;;;3.40;3.10;;;;;;;14.50;48.00;102696.44;4933660;28;97448;-51
2023/04/18 09:05:10;;;;;;;2.93;2.73;;;;;;;14.66;47.32;102702.34;4935196;28;97600;-52
2023/04/18 09:07:35;;;;;;;2.70;2.50;;;;;;;14.81;49.43;102708.72;4934903;28;96716;-52
2023/04/18 09:10:01;;;;;;;2.50;2.30;;;;;;;15.23;49.53;102699.47;4939260;28;97146;-51
2023/04/18 09:12:28;;;;;;;2.60;2.47;;;;;;;15.56;48.18;102697.34;4939122;28;97550;-52
2023/04/18 09:15:10;;;;;;;5.10;2.60;;;;;;;15.68;47.23;102701.88;4936909;28;98812;-50
2023/04/18 09:17:41;;;;;;;2.43;2.33;;;;;;;15.80;47.27;102711.13;4935661;28;96765;-52
2023/04/18 09:20:10;;;;;;;2.17;1.90;;;;;;;15.77;47.92;102710.84;4940555;28;97110;-51
2023/04/18 09:22:49;;;;;;;2.83;2.43;;;;;;;15.80;46.40;102711.91;4935532;28;97216;-52
2023/04/18 09:25:33;;;;;;;2.90;2.73;;;;;;;15.57;46.83;102710.00;4933157;28;97063;-52
2023/04/18 09:28:03;;;;;;;3.20;2.73;;;;;;;15.43;46.97;102710.69;4936962;28;97129;-52
2023/04/18 09:30:50;;;;;;;2.50;2.30;;;;;;;15.18;46.46;102709.19;4934769;28;97120;-51
2023/04/18 09:33:16;;;;;;;3.13;2.83;;;;;;;15.19;47.99;102707.22;4933266;28;96889;-52
2023/04/18 09:35:41;;;;;;;3.20;2.60;;;;;;;15.27;48.08;102705.59;4933045;28;97180;-52
2023/04/18 09:38:07;;;;;;;3.20;3.00;;;;;;;15.22;48.03;102704.28;4934310;28;96837;-52
2023/04/18 09:40:32;;;;;;;5.10;2.83;;;;;;;15.30;47.64;102704.66;4936449;28;96864;-51
2023/04/18 09:42:58;;;;;;;3.20;2.47;;;;;;;15.57;47.92;102702.41;4935634;28;96882;-51
2023/04/18 09:45:24;;;;;;;3.27;2.97;;;;;;;15.95;47.53;102707.13;4935292;28;96938;-52
2023/04/18 09:47:51;;;;;;;3.33;3.00;;;;;;;16.00;46.66;102709.22;4931750;28;96827;-52
2023/04/18 09:50:19;;;;;;;3.73;3.23;;;;;;;16.05;47.41;102707.78;4935515;28;98091;-52
2023/04/18 09:52:44;;;;;;;3.93;3.63;;;;;;;16.22;46.29;102712.34;4931707;28;97041;-52
2023/04/18 09:55:15;;;;;;;6.47;4.20;;;;;;;16.24;45.95;102704.31;4933961;28;96663;-51
2023/04/18 09:57:43;;;;;;;5.63;3.90;;;;;;;16.18;46.33;102711.03;4931683;28;97321;-52
2023/04/18 10:00:12;;;;;;;4.43;4.00;;;;;;;16.07;45.58;102708.84;4934003;28;97236;-52
2023/04/18 10:02:49;;;;;;;9.30;4.67;;;;;;;15.88;44.70;102710.28;4930723;28;97027;-51
2023/04/18 10:05:15;;;;;;;4.50;3.90;;;;;;;15.87;46.07;102708.75;4931473;28;97550;-51
2023/04/18 10:07:44;;;;;;;6.13;4.40;;;;;;;15.67;45.45;102705.88;4935944;28;99356;-50
2023/04/18 10:10:10;;;;;;;5.67;4.80;;;;;;;15.58;45.69;102709.50;4938353;28;96954;-51
2023/04/18 10:12:37;;;;;;;6.67;4.20;;;;;;;15.54;46.00;102716.47;4936693;28;98618;-50
2023/04/18 10:15:03;;;;;;;4.53;4.10;;;;;;;15.32;45.60;102710.50;4940522;28;99296;-52
2023/04/18 10:17:40;;;;;;;5.00;4.47;;;;;;;15.34;44.97;102703.22;4935247;28;96934;-51
2023/04/18 10:20:07;;;;;;;4.63;4.13;;;;;;;15.40;46.29;102706.09;4935818;28;97021;-51
2023/04/18 10:22:33;;;;;;;4.73;4.13;;;;;;;15.35;46.08;102702.00;4935954;28;96823;-51
2023/04/18 10:24:58;;;;;;;6.50;4.03;;;;;;;15.24;46.23;102706.56;4936649;28;99703;-52
2023/04/18 10:27:59;;;;;;;4.70;3.67;;;;;;;15.30;45.23;102705.41;4935738;28;96861;-52
2023/04/18 10:30:39;;;;;;;3.70;3.20;;;;;;;15.51;44.76;102711.88;4934032;28;97136;-51
2023/04/18 10:33:31;;;;;;;4.43;3.27;;;;;;;15.52;44.29;102710.66;4934782;28;97575;-52
2023/04/18 10:36:23;;;;;;;3.70;3.40;;;;;;;15.38;43.17;102705.81;4937104;28;97360;-52
2023/04/18 10:38:53;;;;;;;3.77;3.57;;;;;;;15.21;45.41;102701.94;4930482;28;96978;-50
2023/04/18 10:41:27;;;;;;;4.23;3.67;;;;;;;15.13;45.62;102700.78;4932951;28;97166;-51
2023/04/18 10:44:05;;;;;;;3.73;3.27;;;;;;;15.11;43.99;102697.72;4932049;28;97477;-52
2023/04/18 10:46:30;;;;;;;3.63;3.33;;;;;;;15.14;46.19;102703.09;4932163;28;97135;-51
2023/04/18 10:49:22;;;;;;;3.70;2.90;;;;;;;15.30;42.58;102701.88;4933985;28;96719;-51
2023/04/18 10:51:52;;;;;;;3.97;3.57;;;;;;;15.26;44.97;102704.84;4927093;28;96763;-52
2023/04/18 10:54:48;;;;;;;6.43;3.63;;;;;;;15.05;44.38;102700.38;4935494;28;96980;-51
2023/04/18 10:57:14;;;;;;;3.50;2.93;;;;;;;15.38;46.03;102692.72;4932196;28;97354;-50
2023/04/18 10:59:57;;;;;;;3.27;2.97;;;;;;;15.79;43.53;102721.50;4934903;28;97352;-50
2023/04/18 11:02:28;;;;;;;3.30;3.00;;;;;;;16.26;44.99;102692.69;4932526;28;96835;-52
2023/04/18 11:04:58;;;;;;;3.50;3.20;;;;;;;16.73;42.81;102699.97;4932134;28;96923;-51
2023/04/18 11:07:37;;;;;;;3.60;3.03;;;;;;;16.94;40.31;102698.72;4933456;28;97244;-51
2023/04/18 11:10:05;;;;;;;3.57;2.60;;;;;;;16.65;43.65;102690.50;4934573;28;97183;-52
2023/04/18 11:12:31;;;;;;;2.97;2.67;;;;;;;16.76;43.75;102699.00;4931957;28;96822;-50
2023/04/18 11:14:58;;;;;;;2.50;2.30;;;;;;;16.59;43.77;102689.66;4938296;28;97676;-51
2023/04/18 11:17:31;;;;;;;3.20;2.90;;;;;;;16.47;42.91;102694.28;4931717;28;96981;-51
2023/04/18 11:20:07;;;;;;;2.77;2.57;;;;;;;16.36;44.06;102694.88;4932235;28;96852;-50
2023/04/18 11:22:42;;;;;;;2.83;2.60;;;;;;;16.78;42.32;102688.16;4939076;28;96767;-51
2023/04/18 11:25:08;;;;;;;2.87;2.67;;;;;;;16.60;42.66;102686.41;4937416;28;97566;-51